Time;durP1;ratioP1;P1;durP2;ratioP2;P2;SDS_P1;SDS_P2;PMS_P1;PMS_P2;Temp;Humidity;BMP_temperature;BMP_pressure;BME280_temperature;BME280_humidity;BME280_pressure;Samples;Min_cycle;Max_cycle;Signal;HPM_P1;HPM_P2
2023/09/10 00:02:45;;;;;;;5.53;3.92;;;;;;;19.15;88.56;101626.63;5035986;28;20034;-92
2023/09/10 00:05:10;;;;;;;4.80;3.63;;;;;;;19.14;88.45;101630.16;5035661;28;20033;-92
2023/09/10 00:07:36;;;;;;;4.13;3.40;;;;;;;19.07;88.22;101612.91;5049049;28;20489;-92
2023/09/10 00:10:17;;;;;;;4.07;3.20;;;;;;;19.05;88.59;101618.25;5054559;28;20482;-92
2023/09/10 00:12:43;;;;;;;3.83;3.22;;;;;;;19.08;88.34;101618.09;5055334;28;20112;-93
2023/09/10 00:15:08;;;;;;;3.40;2.90;;;;;;;19.10;89.12;101618.91;5055071;28;20107;-92
2023/09/10 00:17:34;;;;;;;2.97;2.67;;;;;;;19.01;89.46;101607.91;5055803;28;20017;-92
2023/09/10 00:20:14;;;;;;;5.47;3.70;;;;;;;19.04;89.80;101610.41;5049528;23;20041;-92
2023/09/10 00:22:42;;;;;;;5.13;3.70;;;;;;;19.02;90.28;101613.09;5035525;28;20417;-92
2023/09/10 00:25:26;;;;;;;4.22;3.22;;;;;;;19.08;90.04;101619.91;5035560;28;20017;-92
2023/09/10 00:27:52;;;;;;;5.38;3.90;;;;;;;19.05;91.46;101615.63;5035871;28;20025;-93
2023/09/10 00:30:38;;;;;;;5.00;3.80;;;;;;;18.96;89.71;101603.66;5035175;28;20022;-93
2023/09/10 00:33:04;;;;;;;4.50;3.60;;;;;;;18.94;90.95;101602.88;5040285;28;20314;-93
2023/09/10 00:35:56;;;;;;;5.27;3.80;;;;;;;19.05;90.21;101617.38;5054509;28;20112;-93
2023/09/10 00:38:22;;;;;;;6.95;3.75;;;;;;;18.96;90.36;101603.66;5055220;28;20563;-93
2023/09/10 00:41:07;;;;;;;15.57;8.80;;;;;;;19.07;91.66;101616.41;5055117;28;20368;-93
2023/09/10 00:43:33;;;;;;;9.05;5.90;;;;;;;18.97;90.68;101596.66;5054921;28;20041;-92
2023/09/10 00:45:59;;;;;;;7.50;4.93;;;;;;;19.01;89.87;101600.84;5055220;28;20059;-93
2023/09/10 00:51:48;;;;;;;6.65;4.57;;;;;;;18.98;90.83;101587.81;5055141;28;20043;-93
2023/09/10 00:54:34;;;;;;;5.50;3.88;;;;;;;18.97;89.69;101586.97;5054939;28;20043;-93
2023/09/10 00:57:02;;;;;;;;;;;;;;;19.11;89.66;101611.88;5051414;28;20054;-93
2023/09/10 00:59:45;;;;;;;7.70;4.82;;;;;;;19.04;90.39;101607.75;5054591;28;19967;-92
2023/09/10 01:02:14;;;;;;;6.55;4.68;;;;;;;19.03;90.46;101604.28;5054319;28;20029;-93
2023/09/10 01:04:40;;;;;;;5.50;3.90;;;;;;;19.01;90.27;101605.28;5054436;28;20722;-93
2023/09/10 01:07:06;;;;;;;5.00;3.85;;;;;;;19.03;90.03;101612.19;5054575;28;20029;-93
2023/09/10 01:09:41;;;;;;;4.97;3.47;;;;;;;18.86;89.71;101583.88;5002663;28;20037;-93
2023/09/10 01:12:24;;;;;;;5.07;3.60;;;;;;;18.96;89.39;101605.44;5053966;28;20033;-93
2023/09/10 01:15:07;;;;;;;4.97;3.92;;;;;;;18.95;89.78;101609.00;5054538;28;20468;-93
2023/09/10 01:17:36;;;;;;;4.97;3.58;;;;;;;18.92;89.52;101603.81;5054789;28;20028;-93
2023/09/10 01:20:30;;;;;;;5.30;3.60;;;;;;;18.90;89.71;101603.88;5054337;28;20041;-93
2023/09/10 01:23:15;;;;;;;4.53;3.50;;;;;;;18.87;89.94;101617.13;5054365;28;20044;-92
2023/09/10 01:25:40;;;;;;;4.35;3.22;;;;;;;18.79;89.94;101601.66;5053811;28;20025;-92
2023/09/10 01:28:06;;;;;;;5.20;3.35;;;;;;;18.75;91.01;101610.56;5054021;28;20454;-93
2023/09/10 01:30:32;;;;;;;3.60;3.13;;;;;;;18.67;89.98;101602.09;5054125;28;20029;-92
2023/09/10 01:33:41;;;;;;;4.00;3.20;;;;;;;18.69;89.98;101613.44;5054037;28;20477;-93
2023/09/10 01:36:36;;;;;;;5.18;3.30;;;;;;;18.67;90.26;101615.25;5045160;28;20048;-93
2023/09/10 01:39:52;;;;;;;4.38;3.45;;;;;;;18.65;90.27;101612.69;5054137;28;20048;-93
2023/09/10 01:42:19;;;;;;;5.60;3.55;;;;;;;18.54;90.03;101599.09;5006603;28;20041;-93
2023/09/10 01:44:45;;;;;;;4.00;3.30;;;;;;;18.61;90.11;101612.88;5054213;28;20021;-93
2023/09/10 01:47:30;;;;;;;4.10;3.35;;;;;;;18.59;90.61;101612.91;5053766;28;20083;-93
2023/09/10 01:49:55;;;;;;;5.03;3.40;;;;;;;18.58;91.01;101616.44;5053930;28;20058;-93
2023/09/10 01:52:21;;;;;;;4.07;3.30;;;;;;;18.57;90.78;101619.13;5053381;28;20028;-93
2023/09/10 01:55:20;;;;;;;4.03;3.20;;;;;;;18.57;91.35;101620.00;5053648;28;20078;-93
2023/09/10 01:58:04;;;;;;;3.50;3.08;;;;;;;18.48;91.10;101612.44;5053875;28;20024;-93
2023/09/10 02:00:29;;;;;;;3.58;3.00;;;;;;;18.44;90.89;101609.06;5053837;28;20032;-92
2023/09/10 02:02:54;;;;;;;4.93;3.70;;;;;;;18.53;90.83;101623.66;5072893;28;20048;-93
2023/09/10 02:05:49;;;;;;;4.50;3.40;;;;;;;18.53;90.55;101626.28;5053758;28;20044;-93
2023/09/10 02:08:14;;;;;;;4.15;3.50;;;;;;;18.49;91.03;101622.03;5049581;28;20014;-93
2023/09/10 02:11:04;;;;;;;4.40;3.40;;;;;;;18.45;90.83;101620.47;5051934;28;20025;-93
2023/09/10 02:13:29;;;;;;;5.30;3.58;;;;;;;18.37;90.79;101611.06;5054091;28;20381;-92
2023/09/10 02:16:16;;;;;;;5.53;3.97;;;;;;;18.34;90.81;101610.31;5053332;28;20029;-93
2023/09/10 02:18:42;;;;;;;6.03;3.90;;;;;;;18.43;90.81;101633.63;5051338;28;20033;-93
2023/09/10 02:21:25;;;;;;;5.93;3.90;;;;;;;18.31;90.98;101616.53;5033252;28;20036;-92
2023/09/10 02:23:51;;;;;;;4.63;3.53;;;;;;;18.39;90.97;101632.03;5032627;28;20033;-93
2023/09/10 02:26:16;;;;;;;5.87;4.10;;;;;;;18.35;90.90;101633.91;5033004;28;20496;-92
2023/09/10 02:29:00;;;;;;;5.13;3.43;;;;;;;18.35;90.71;101633.06;5033730;28;20092;-93
2023/09/10 02:31:26;;;;;;;5.25;3.92;;;;;;;18.21;91.08;101616.00;5033519;28;20025;-93
2023/09/10 02:33:53;;;;;;;5.57;4.07;;;;;;;18.29;90.90;101634.13;5033732;28;20026;-92
2023/09/10 02:36:36;;;;;;;5.35;3.95;;;;;;;18.18;91.23;101623.97;4997689;28;20042;-93
2023/09/10 02:39:01;;;;;;;5.68;3.80;;;;;;;18.16;91.21;101620.56;5037626;28;20444;-92
2023/09/10 02:41:26;;;;;;;5.17;3.80;;;;;;;18.17;91.14;101618.78;5037059;28;20114;-92
2023/09/10 02:44:09;;;;;;;4.47;3.40;;;;;;;18.13;91.52;101617.16;5036282;28;20028;-92
2023/09/10 02:46:34;;;;;;;4.72;3.60;;;;;;;18.13;91.79;101615.41;5037607;28;20026;-92
2023/09/10 02:49:00;;;;;;;4.57;3.50;;;;;;;18.15;91.90;101617.97;5037274;28;20048;-93
2023/09/10 02:51:43;;;;;;;4.27;3.20;;;;;;;18.20;92.17;101626.56;5036215;28;20061;-93
2023/09/10 02:54:09;;;;;;;4.93;3.47;;;;;;;18.08;92.02;101606.81;5036715;28;20175;-93
2023/09/10 02:56:34;;;;;;;4.30;3.30;;;;;;;18.14;92.31;101622.38;5036852;28;20514;-93
2023/09/10 02:59:19;;;;;;;6.70;4.30;;;;;;;18.22;91.62;101630.00;5041945;28;20025;-91
2023/09/10 03:01:45;;;;;;;4.65;3.67;;;;;;;18.12;92.18;101610.22;5049187;28;20030;-93
2023/09/10 03:04:10;;;;;;;5.60;3.87;;;;;;;18.10;91.78;101617.31;5036874;28;20021;-93
2023/09/10 03:06:54;;;;;;;4.53;3.63;;;;;;;18.11;91.92;101624.28;5037261;28;20485;-93
2023/09/10 03:09:19;;;;;;;5.50;3.80;;;;;;;18.16;92.72;101635.47;5036358;28;20033;-93
2023/09/10 03:12:06;;;;;;;5.33;3.77;;;;;;;18.04;92.37;101619.22;5036818;28;20033;-92
2023/09/10 03:14:31;;;;;;;4.32;3.28;;;;;;;18.03;92.90;101619.28;5035988;28;20155;-93
2023/09/10 03:16:56;;;;;;;5.00;3.80;;;;;;;18.00;92.41;101614.13;5036679;28;20477;-93
2023/09/10 03:19:21;;;;;;;4.80;3.57;;;;;;;18.01;92.56;101608.81;5036213;28;20647;-93
2023/09/10 03:22:06;;;;;;;5.50;3.60;;;;;;;18.11;93.28;101627.75;5036573;28;20420;-92
2023/09/10 03:24:35;;;;;;;5.15;3.63;;;;;;;18.03;94.79;101614.88;5111568;23;20045;-93
2023/09/10 03:27:18;;;;;;;5.78;3.90;;;;;;;18.06;94.37;101612.16;5056069;28;20021;-93
2023/09/10 03:29:44;;;;;;;4.15;3.25;;;;;;;18.05;93.83;101606.97;5055935;28;20021;-93
2023/09/10 03:32:10;;;;;;;4.82;3.47;;;;;;;18.05;93.97;101613.06;5055721;28;20485;-93
2023/09/10 03:34:36;;;;;;;5.55;3.60;;;;;;;18.08;93.65;101606.81;5056513;28;20032;-93
2023/09/10 03:37:18;;;;;;;5.03;3.20;;;;;;;18.10;93.42;101614.69;5056409;28;20457;-93
2023/09/10 03:39:43;;;;;;;6.25;3.95;;;;;;;17.99;93.49;101591.41;5053970;28;20021;-93
2023/09/10 03:42:09;;;;;;;7.63;4.20;;;;;;;17.97;93.23;101598.47;5050170;28;20505;-92
2023/09/10 03:44:34;;;;;;;6.00;4.03;;;;;;;17.95;93.40;101603.75;5036380;28;20021;-92
2023/09/10 03:47:15;;;;;;;5.93;4.03;;;;;;;18.02;93.20;101614.94;5036323;28;20067;-93
2023/09/10 03:49:41;;;;;;;6.35;4.28;;;;;;;17.93;93.80;101602.09;5035529;28;20359;-93
2023/09/10 03:52:31;;;;;;;5.97;4.30;;;;;;;18.01;94.18;101627.19;5035882;28;20044;-92
2023/09/10 03:54:56;;;;;;;6.78;4.28;;;;;;;17.93;93.75;101608.19;5036327;28;20021;-93
2023/09/10 03:57:22;;;;;;;6.37;4.50;;;;;;;17.94;94.09;101612.53;5035604;28;20036;-93
2023/09/10 03:59:47;;;;;;;6.60;4.27;;;;;;;17.79;93.57;101589.44;5035811;28;20019;-92
2023/09/10 04:02:31;;;;;;;6.13;4.20;;;;;;;17.90;94.36;101613.56;5035890;28;20049;-93
2023/09/10 04:04:57;;;;;;;5.93;4.05;;;;;;;17.75;94.06;101597.41;5035615;28;20021;-93
2023/09/10 04:07:41;;;;;;;6.13;4.30;;;;;;;17.86;94.00;101609.31;5035648;28;20031;-93
2023/09/10 04:10:07;;;;;;;9.63;5.82;;;;;;;17.72;93.53;101588.78;5035836;28;20025;-92
2023/09/10 04:12:33;;;;;;;6.95;4.32;;;;;;;17.79;94.34;101603.41;5035865;28;20112;-92
2023/09/10 04:15:18;;;;;;;6.33;4.30;;;;;;;17.75;94.43;101594.78;5037898;28;20129;-92
2023/09/10 04:17:43;;;;;;;6.22;4.32;;;;;;;17.75;94.32;101584.28;5055079;28;20070;-92
2023/09/10 04:20:09;;;;;;;6.70;4.60;;;;;;;17.83;94.90;101604.16;5053226;28;20021;-93
2023/09/10 04:22:55;;;;;;;6.65;4.57;;;;;;;17.83;94.75;101606.78;5054959;28;20025;-93
2023/09/10 04:25:20;;;;;;;7.20;4.85;;;;;;;17.82;94.99;101598.06;5040592;28;20053;-93
2023/09/10 04:27:46;;;;;;;7.00;4.57;;;;;;;17.72;94.69;101586.16;5035065;28;20038;-93
2023/09/10 04:30:33;;;;;;;6.17;4.00;;;;;;;17.80;94.91;101605.13;5035101;28;20116;-92
2023/09/10 04:32:58;;;;;;;6.40;4.47;;;;;;;17.71;94.76;101590.53;5035317;28;20018;-93
2023/09/10 04:35:23;;;;;;;6.83;4.60;;;;;;;17.71;94.82;101585.28;5035243;28;20025;-93
2023/09/10 04:38:08;;;;;;;7.80;4.87;;;;;;;17.81;94.91;101606.84;5034587;28;20037;-93
2023/09/10 04:40:34;;;;;;;7.13;4.70;;;;;;;17.80;94.75;101601.63;5034619;28;20029;-93
2023/09/10 04:43:17;;;;;;;7.60;4.97;;;;;;;17.77;94.89;101597.34;5034426;28;20535;-93
2023/09/10 04:45:43;;;;;;;7.15;4.25;;;;;;;17.80;95.15;101596.38;5035085;28;20021;-92
2023/09/10 04:48:08;;;;;;;8.17;4.80;;;;;;;17.82;94.98;101605.06;5035060;28;20426;-93
2023/09/10 04:50:33;;;;;;;8.13;4.80;;;;;;;17.75;94.96;101599.16;5035298;28;20018;-93
2023/09/10 04:53:17;;;;;;;8.20;5.17;;;;;;;17.68;94.91;101582.75;5034376;28;20394;-93
2023/09/10 04:55:42;;;;;;;7.93;5.30;;;;;;;17.73;94.80;101593.13;5028229;28;20467;-92
2023/09/10 04:58:11;;;;;;;7.37;4.60;;;;;;;17.74;95.37;101586.94;5034492;28;20064;-93
2023/09/10 05:00:56;;;;;;;7.90;5.30;;;;;;;17.79;94.91;101602.56;4982842;28;20042;-93
2023/09/10 05:03:22;;;;;;;6.87;4.50;;;;;;;17.67;95.18;101581.06;5034780;28;20033;-92
2023/09/10 05:06:07;;;;;;;7.43;5.13;;;;;;;17.70;95.30;101593.22;5034357;28;20030;-92
2023/09/10 05:08:32;;;;;;;8.50;5.10;;;;;;;17.80;94.74;101609.50;5034743;28;20025;-93
2023/09/10 05:10:58;;;;;;;7.10;4.68;;;;;;;17.79;95.44;101624.41;5034635;28;20052;-92
2023/09/10 05:13:42;;;;;;;8.13;5.37;;;;;;;17.79;95.34;101621.78;5034039;28;20034;-92
2023/09/10 05:16:07;;;;;;;8.00;5.07;;;;;;;17.67;95.38;101604.69;5034520;28;20486;-93
2023/09/10 05:18:48;;;;;;;7.57;4.73;;;;;;;17.67;95.54;101602.06;5034406;28;20021;-93
2023/09/10 05:21:13;;;;;;;9.98;6.00;;;;;;;17.67;95.31;101603.81;5033740;28;20028;-93
2023/09/10 05:23:39;;;;;;;8.90;5.70;;;;;;;17.80;95.26;101618.25;5034659;28;20469;-92
2023/09/10 05:26:05;;;;;;;9.80;5.90;;;;;;;17.80;95.37;101618.25;5053662;28;20013;-93
2023/09/10 05:28:48;;;;;;;8.73;5.37;;;;;;;17.73;95.37;101617.59;5054484;28;20281;-92
2023/09/10 05:31:14;;;;;;;7.70;5.10;;;;;;;17.68;95.61;101605.53;5053674;28;20017;-93
2023/09/10 05:33:39;;;;;;;9.13;5.60;;;;;;;17.69;95.43;101599.38;5054040;28;20527;-92
2023/09/10 05:36:04;;;;;;;8.40;5.10;;;;;;;17.74;95.79;101613.19;5053833;28;20017;-92
2023/09/10 05:38:36;;;;;;;7.70;5.00;;;;;;;17.78;96.01;101609.56;5055468;28;20033;-89
2023/09/10 05:41:11;;;;;;;7.82;5.05;;;;;;;17.72;96.32;101601.91;5060444;28;20025;-91
2023/09/10 05:43:36;;;;;;;7.10;4.72;;;;;;;17.82;96.35;101621.69;5053343;28;20539;-93
2023/09/10 05:46:01;;;;;;;7.00;4.50;;;;;;;17.83;96.32;101622.53;5054646;28;20024;-92
2023/09/10 05:48:27;;;;;;;6.30;4.23;;;;;;;17.80;96.08;101610.38;5055378;28;20025;-92
2023/09/10 05:51:14;;;;;;;6.17;4.23;;;;;;;17.95;96.47;101627.38;5055137;28;20107;-91
2023/09/10 05:53:42;;;;;;;6.45;4.40;;;;;;;17.86;96.43;101604.91;5053466;28;20035;-93
2023/09/10 05:56:07;;;;;;;8.75;5.13;;;;;;;18.03;96.00;101628.00;5039905;28;20036;-92
2023/09/10 05:58:33;;;;;;;7.20;4.67;;;;;;;18.02;96.22;101623.66;5051920;28;20021;-92
2023/09/10 06:00:58;;;;;;;7.50;4.70;;;;;;;18.04;96.46;101624.47;5053752;28;20025;-92
2023/09/10 06:03:36;;;;;;;7.70;5.07;;;;;;;18.11;96.10;101627.75;5052702;28;20473;-92
2023/09/10 06:06:01;;;;;;;7.07;4.80;;;;;;;18.21;96.24;101641.44;5053713;28;20028;-92
2023/09/10 06:08:29;;;;;;;8.70;5.50;;;;;;;18.25;96.03;101637.75;5053508;28;20400;-92
2023/09/10 06:10:55;;;;;;;6.80;4.40;;;;;;;18.29;96.57;101649.91;5045285;28;20092;-92
2023/09/10 06:13:47;;;;;;;6.13;4.30;;;;;;;18.36;96.07;101653.16;5056517;28;20456;-92
2023/09/10 06:16:12;;;;;;;6.78;4.10;;;;;;;18.33;96.85;101634.88;5057693;28;20037;-92
2023/09/10 06:18:51;;;;;;;7.53;4.90;;;;;;;18.42;96.55;101646.84;5039614;28;20044;-92
2023/09/10 06:21:16;;;;;;;11.30;6.45;;;;;;;18.41;96.18;101635.44;5037420;28;20022;-92
2023/09/10 06:23:41;;;;;;;8.73;5.43;;;;;;;18.57;96.36;101648.94;5037153;28;20120;-90
2023/09/10 06:26:07;;;;;;;7.63;5.00;;;;;;;18.63;95.75;101659.22;5045821;28;20021;-91
2023/09/10 06:28:45;;;;;;;8.07;5.63;;;;;;;18.66;98.00;101645.09;5056922;28;20031;-92
2023/09/10 06:31:11;;;;;;;7.38;4.75;;;;;;;18.73;97.50;101654.47;5054809;28;20025;-92
2023/09/10 06:33:36;;;;;;;6.13;4.10;;;;;;;18.74;97.78;101647.44;5057704;28;20484;-92
2023/09/10 06:36:02;;;;;;;5.83;4.10;;;;;;;18.76;98.19;101640.34;5057423;28;20017;-92
2023/09/10 06:38:47;;;;;;;6.25;4.07;;;;;;;18.87;97.36;101653.97;5070538;28;20021;-91
2023/09/10 06:41:15;;;;;;;6.15;3.95;;;;;;;19.00;96.73;101657.00;5057428;28;20103;-91
2023/09/10 06:43:42;;;;;;;9.93;5.68;;;;;;;19.00;99.06;101645.66;5056078;28;20024;-91
2023/09/10 06:46:20;;;;;;;9.95;6.07;;;;;;;19.14;98.25;101648.59;5056665;28;20025;-91
2023/09/10 06:48:46;;;;;;;8.50;5.18;;;;;;;19.14;97.35;101636.31;5056624;28;20017;-88
2023/09/10 06:51:11;;;;;;;10.67;6.40;;;;;;;19.37;96.73;101657.34;5055318;28;20021;-78
2023/09/10 06:53:39;;;;;;;11.77;6.60;;;;;;;19.76;99.14;101660.16;5055777;28;20032;-92
2023/09/10 06:56:04;;;;;;;9.07;5.50;;;;;;;21.12;95.19;101653.44;5056663;28;20044;-90
2023/09/10 06:58:30;;;;;;;14.57;8.00;;;;;;;22.82;89.73;101656.47;5057064;28;20029;-93
2023/09/10 07:00:55;;;;;;;12.43;7.03;;;;;;;24.33;87.49;101662.91;5057117;28;20048;-93
2023/09/10 07:03:41;;;;;;;11.53;6.20;;;;;;;25.63;80.93;101667.22;5110663;23;20027;-94
2023/09/10 07:16:03;;;;;;;7.40;4.80;;;;;;;26.57;74.02;101678.59;5055137;28;20142;-91
2023/09/10 07:18:33;;;;;;;6.45;4.60;;;;;;;25.88;74.96;101670.88;5055176;28;20060;-78
2023/09/10 07:21:01;;;;;;;6.72;4.85;;;;;;;25.19;76.97;101673.59;5055657;28;20092;-84
2023/09/10 07:23:27;;;;;;;8.73;5.60;;;;;;;24.57;77.27;101666.78;5053965;28;20067;-85
2023/09/10 07:25:53;;;;;;;12.98;7.93;;;;;;;24.05;78.22;101671.69;5044485;28;20037;-84
2023/09/10 07:28:18;;;;;;;12.37;7.43;;;;;;;23.64;79.58;101675.78;5054451;28;20060;-77
2023/09/10 07:30:43;;;;;;;10.60;6.67;;;;;;;23.34;81.83;101666.00;5054759;28;20031;-75
2023/09/10 07:33:08;;;;;;;10.53;6.43;;;;;;;23.17;82.84;101674.84;5054522;28;20102;-90
2023/09/10 07:35:34;;;;;;;10.70;6.57;;;;;;;23.03;83.51;101672.09;5055860;28;20032;-90
2023/09/10 07:37:59;;;;;;;13.37;8.30;;;;;;;22.89;83.92;101671.06;5055760;28;20025;-90
2023/09/10 07:40:24;;;;;;;14.93;9.10;;;;;;;22.79;85.28;101672.50;5055372;28;20029;-90
2023/09/10 07:42:50;;;;;;;18.00;10.87;;;;;;;22.71;86.03;101672.91;5055346;28;20033;-90
2023/09/10 07:45:16;;;;;;;14.13;8.60;;;;;;;22.67;85.88;101674.03;5055291;28;20021;-90
2023/09/10 07:47:41;;;;;;;11.55;7.00;;;;;;;22.70;86.25;101673.00;5056252;28;20275;-90
2023/09/10 07:50:07;;;;;;;12.38;7.60;;;;;;;22.74;86.36;101678.03;5055651;28;20041;-90
2023/09/10 07:52:32;;;;;;;9.57;6.47;;;;;;;22.77;86.37;101677.88;5054859;28;20388;-90
2023/09/10 07:54:58;;;;;;;10.67;6.60;;;;;;;22.79;86.32;101675.13;5055431;28;20028;-90
2023/09/10 07:57:26;;;;;;;10.57;6.53;;;;;;;22.85;86.69;101674.81;5055546;28;20111;-90
2023/09/10 07:59:51;;;;;;;8.15;5.75;;;;;;;22.94;86.31;101679.63;5055127;28;20096;-91
2023/09/10 08:02:17;;;;;;;14.52;8.50;;;;;;;22.98;86.45;101675.84;5055616;28;20469;-90
2023/09/10 08:04:43;;;;;;;12.18;7.47;;;;;;;23.01;86.33;101679.25;5055519;28;20409;-91
2023/09/10 08:07:10;;;;;;;9.80;6.35;;;;;;;23.10;85.98;101689.34;5054325;28;20500;-90
2023/09/10 08:09:36;;;;;;;14.98;8.63;;;;;;;23.15;86.32;101689.97;5055679;28;20025;-90
2023/09/10 08:12:02;;;;;;;12.50;7.53;;;;;;;23.23;87.17;101689.56;5055423;28;20108;-90
2023/09/10 08:14:28;;;;;;;12.68;7.68;;;;;;;23.27;86.62;101691.09;5054501;28;20041;-90
2023/09/10 08:16:53;;;;;;;13.47;8.40;;;;;;;23.35;86.38;101694.19;5054353;28;20017;-90
2023/09/10 08:19:18;;;;;;;8.17;5.77;;;;;;;23.43;86.88;101693.72;5053581;28;20098;-90
2023/09/10 08:21:44;;;;;;;9.33;5.87;;;;;;;23.54;87.43;101683.38;5053055;28;20025;-93
2023/09/10 08:24:09;;;;;;;10.00;6.23;;;;;;;23.68;87.29;101687.03;5054163;28;20024;-90
2023/09/10 08:26:34;;;;;;;9.67;6.20;;;;;;;23.77;86.10;101675.06;5053658;28;20025;-90
2023/09/10 08:28:59;;;;;;;8.93;5.60;;;;;;;23.88;85.91;101670.81;5053151;28;20377;-90
2023/09/10 08:31:25;;;;;;;9.20;5.67;;;;;;;24.01;85.88;101681.63;5053725;28;20025;-90
2023/09/10 08:33:50;;;;;;;8.47;5.47;;;;;;;24.12;86.03;101665.03;5054105;28;20029;-90
2023/09/10 08:36:15;;;;;;;9.00;5.97;;;;;;;24.24;85.08;101670.56;5052473;28;20060;-90
2023/09/10 08:38:42;;;;;;;7.20;4.97;;;;;;;24.36;84.51;101678.66;5053876;28;20021;-90
2023/09/10 08:41:26;;;;;;;10.02;5.70;;;;;;;24.46;83.93;101676.28;5053858;28;20025;-90
2023/09/10 08:43:56;;;;;;;7.18;4.80;;;;;;;24.58;84.38;101679.13;5053054;28;20032;-90
2023/09/10 08:46:29;;;;;;;7.05;5.00;;;;;;;24.65;83.47;101680.47;5053525;28;20689;-92
2023/09/10 08:48:56;;;;;;;6.22;4.40;;;;;;;24.77;83.66;101678.88;5053266;28;20482;-92
2023/09/10 08:51:21;;;;;;;5.82;4.53;;;;;;;24.91;83.50;101685.97;5053996;28;20021;-92
2023/09/10 08:53:47;;;;;;;7.72;5.00;;;;;;;25.02;82.65;101682.63;5053869;28;20025;-92
2023/09/10 08:56:14;;;;;;;9.02;5.88;;;;;;;25.12;81.97;101676.63;5052709;28;20519;-92
2023/09/10 08:58:42;;;;;;;13.32;7.38;;;;;;;25.23;79.53;101677.75;5053859;28;20028;-93
2023/09/10 09:01:11;;;;;;;8.55;5.72;;;;;;;25.29;81.31;101672.88;5053372;28;20025;-92
2023/09/10 09:03:37;;;;;;;6.55;4.90;;;;;;;25.42;80.91;101677.44;5053038;28;20029;-93
2023/09/10 09:06:04;;;;;;;5.97;4.60;;;;;;;25.57;81.21;101683.53;5053463;28;20431;-93
2023/09/10 09:08:32;;;;;;;7.55;4.78;;;;;;;25.66;79.40;101676.78;5053531;28;20025;-92
2023/09/10 09:11:08;;;;;;;6.38;4.57;;;;;;;25.77;79.61;101673.41;5053034;28;20502;-93
2023/09/10 09:13:40;;;;;;;9.38;6.10;;;;;;;25.91;79.04;101686.63;5053857;28;20025;-90
2023/09/10 09:16:07;;;;;;;6.35;4.70;;;;;;;26.01;79.87;101681.53;5020319;28;1084732;-89
2023/09/10 09:18:35;;;;;;;5.38;4.35;;;;;;;26.13;78.52;101677.22;5062957;28;20032;-90
2023/09/10 09:21:22;;;;;;;6.63;4.57;;;;;;;26.24;77.55;101674.66;5053854;28;20025;-90
2023/09/10 09:23:53;;;;;;;6.88;4.63;;;;;;;26.32;78.46;101677.66;5053225;28;20025;-91
2023/09/10 09:26:21;;;;;;;7.22;4.97;;;;;;;26.46;78.28;101678.53;5053887;28;20113;-90
2023/09/10 09:28:47;;;;;;;6.03;4.53;;;;;;;26.56;78.49;101674.25;5053864;28;20017;-91
2023/09/10 09:31:12;;;;;;;5.57;4.32;;;;;;;26.72;74.63;101678.47;5053030;28;20040;-91
2023/09/10 09:33:38;;;;;;;6.77;5.07;;;;;;;26.83;77.90;101678.59;5053943;28;20032;-91
2023/09/10 09:36:10;;;;;;;6.57;4.70;;;;;;;26.96;76.82;101673.25;5053727;28;20353;-90
2023/09/10 09:38:41;;;;;;;5.90;4.15;;;;;;;27.09;75.39;101673.22;5053221;28;20063;-90
2023/09/10 09:41:06;;;;;;;5.72;4.43;;;;;;;27.21;77.25;101677.66;5053535;28;20021;-90
2023/09/10 09:43:34;;;;;;;4.10;3.67;;;;;;;27.33;75.88;101675.88;5053629;28;20039;-91
2023/09/10 09:46:00;;;;;;;7.22;4.70;;;;;;;27.42;74.93;101658.38;5052844;28;20028;-90
2023/09/10 09:48:25;;;;;;;;;;;;;;;27.52;75.01;101656.75;5053288;28;20021;-90
2023/09/10 09:50:51;;;;;;;9.30;5.30;;;;;;;27.61;75.05;101652.56;5053300;28;20350;-89
2023/09/10 09:53:16;;;;;;;;;;;;;;;27.73;75.21;101656.97;5053425;28;20473;-90
2023/09/10 09:55:44;;;;;;;6.45;4.60;;;;;;;27.83;74.25;101657.09;5053432;28;19913;-90
2023/09/10 09:58:11;;;;;;;9.60;5.43;;;;;;;27.93;70.85;101659.06;5053223;28;20029;-91
2023/09/10 10:00:37;;;;;;;6.90;4.80;;;;;;;27.98;71.79;101656.88;5052701;28;20096;-90
2023/09/10 10:03:06;;;;;;;6.43;4.00;;;;;;;28.13;73.55;101654.88;5052713;28;20186;-89
2023/09/10 10:05:34;;;;;;;5.28;4.20;;;;;;;28.23;69.66;101652.38;5053001;28;20033;-90
2023/09/10 10:08:00;;;;;;;6.85;4.68;;;;;;;28.33;72.49;101653.34;5052841;28;20081;-89
2023/09/10 10:10:25;;;;;;;;;;;;;;;28.39;65.60;101657.34;5053524;28;20104;-90
2023/09/10 10:12:52;;;;;;;14.82;7.97;;;;;;;28.37;67.53;101649.47;5053359;28;19912;-90
2023/09/10 10:15:18;;;;;;;9.85;6.40;;;;;;;28.45;70.43;101646.16;5053137;28;20069;-90
2023/09/10 10:17:44;;;;;;;;;;;;;;;28.61;70.21;101648.47;5053154;28;20103;-90
2023/09/10 10:20:10;;;;;;;7.47;5.25;;;;;;;28.73;70.23;101647.53;5052910;28;19919;-90
2023/09/10 10:22:36;;;;;;;6.60;4.95;;;;;;;28.85;68.53;101636.81;5053115;28;20033;-90
2023/09/10 10:25:04;;;;;;;;;;;;;;;28.95;64.83;101643.97;5053248;28;20028;-90
2023/09/10 10:27:32;;;;;;;8.63;5.15;;;;;;;29.04;69.05;101646.88;5052616;28;19935;-90
2023/09/10 10:29:58;;;;;;;7.30;5.05;;;;;;;29.12;67.73;101639.94;5052792;28;20025;-90
2023/09/10 10:32:30;;;;;;;;;;;;;;;29.21;66.61;101643.69;5053248;28;20061;-90
2023/09/10 10:34:59;;;;;;;6.15;4.80;;;;;;;29.28;66.44;101644.84;5052710;28;19965;-90
2023/09/10 10:37:56;;;;;;;5.72;4.60;;;;;;;29.42;67.26;101630.38;5052776;28;20123;-90
2023/09/10 10:40:27;;;;;;;5.05;3.95;;;;;;;29.56;65.37;101633.72;5052807;28;20442;-89
2023/09/10 10:43:12;;;;;;;6.30;4.10;;;;;;;29.70;66.42;101629.84;5052315;28;20063;-90
2023/09/10 10:45:38;;;;;;;4.20;3.58;;;;;;;29.80;66.41;101633.44;5053108;28;20025;-90
2023/09/10 10:48:11;;;;;;;3.75;3.25;;;;;;;29.92;67.12;101626.22;5052706;28;20029;-89
2023/09/10 10:50:38;;;;;;;3.50;3.20;;;;;;;30.07;63.92;101620.53;5052823;28;20025;-91
2023/09/10 10:53:14;;;;;;;3.33;3.03;;;;;;;30.18;65.32;101632.03;5052663;28;20036;-90
2023/09/10 10:55:41;;;;;;;3.55;3.22;;;;;;;30.20;63.93;101621.16;5052191;28;20028;-90
2023/09/10 10:58:06;;;;;;;3.42;3.13;;;;;;;30.26;58.45;101615.28;5052468;28;20419;-90
2023/09/10 11:00:32;;;;;;;4.38;3.78;;;;;;;30.35;61.35;101622.50;5055940;28;20025;-91
2023/09/10 11:03:14;;;;;;;;;;;;;;;30.43;61.35;101624.53;5056055;28;20031;-90
2023/09/10 11:06:12;;;;;;;6.40;3.80;;;;;;;30.55;63.98;101622.59;5056346;28;20445;-90
2023/09/10 11:08:46;;;;;;;4.00;3.60;;;;;;;30.64;61.43;101619.09;5056085;28;20029;-91
2023/09/10 11:11:38;;;;;;;3.42;3.13;;;;;;;30.76;61.92;101616.31;5055504;28;20029;-90
2023/09/10 11:14:08;;;;;;;3.55;3.08;;;;;;;30.88;63.38;101614.38;5055522;28;20025;-90
2023/09/10 11:16:34;;;;;;;4.43;3.70;;;;;;;30.95;53.96;101616.38;5055950;28;20445;-90
2023/09/10 11:19:01;;;;;;;12.98;5.47;;;;;;;30.82;56.15;101605.06;5056271;28;20021;-90
2023/09/10 11:21:54;;;;;;;6.22;4.22;;;;;;;30.90;61.17;101610.56;5055298;28;20044;-75
2023/09/10 11:24:19;;;;;;;5.00;3.90;;;;;;;31.02;61.29;101613.94;5044365;28;20037;-89
2023/09/10 11:26:45;;;;;;;6.40;4.17;;;;;;;31.08;56.07;101605.38;5038891;28;20052;-87
2023/09/10 11:29:16;;;;;;;4.07;3.60;;;;;;;31.11;59.66;101609.59;5038618;28;20377;-88
2023/09/10 11:31:45;;;;;;;3.50;3.20;;;;;;;31.21;60.56;101601.59;5054683;28;20043;-85
2023/09/10 11:34:31;;;;;;;3.58;2.97;;;;;;;31.33;61.07;101604.97;5044403;28;20144;-85
2023/09/10 11:37:04;;;;;;;2.95;2.65;;;;;;;31.44;60.24;101607.50;5035329;28;20030;-85
2023/09/10 11:39:31;;;;;;;3.00;2.70;;;;;;;31.56;60.63;101606.34;5034435;28;20025;-86
2023/09/10 11:41:58;;;;;;;3.17;2.88;;;;;;;31.62;59.92;101607.63;5035011;28;20425;-86
2023/09/10 11:44:24;;;;;;;3.90;3.40;;;;;;;31.64;59.42;101604.81;5036492;28;20025;-85
2023/09/10 11:46:51;;;;;;;3.88;2.90;;;;;;;31.64;59.20;101604.81;5040283;28;20088;-86
2023/09/10 11:49:18;;;;;;;3.30;2.80;;;;;;;31.64;59.72;101602.97;5034502;28;20025;-86
2023/09/10 11:51:52;;;;;;;3.30;2.92;;;;;;;31.66;59.54;101597.44;5034328;28;20294;-86
2023/09/10 11:54:19;;;;;;;2.97;2.67;;;;;;;31.64;58.37;101596.75;5034759;28;20386;-86
2023/09/10 11:56:47;;;;;;;3.50;2.60;;;;;;;31.64;59.13;101602.13;5045147;28;20083;-86
2023/09/10 11:59:16;;;;;;;3.53;3.00;;;;;;;31.62;57.21;101598.75;5042303;28;20470;-86